Time;durP1;ratioP1;P1;durP2;ratioP2;P2;SDS_P1;SDS_P2;PMS_P1;PMS_P2;Temp;Humidity;BMP_temperature;BMP_pressure;BME280_temperature;BME280_humidity;BME280_pressure;Samples;Min_cycle;Max_cycle;Signal;HPM_P1;HPM_P2
2021/07/02 00:00:17;;;;;;;6.23;1.53;;;22.90;63.00;;;;;;5064511;28;20213;-68
2021/07/02 00:02:44;;;;;;;3.70;1.97;;;22.90;63.50;;;;;;5062588;28;20218;-68
2021/07/02 00:05:12;;;;;;;5.10;1.70;;;22.90;64.10;;;;;;5061028;28;20244;-68
2021/07/02 00:07:39;;;;;;;4.13;1.87;;;22.80;65.20;;;;;;5061808;28;20222;-68
2021/07/02 00:10:08;;;;;;;6.23;2.50;;;22.80;66.30;;;;;;5063155;28;20228;-68
2021/07/02 00:12:35;;;;;;;5.20;2.20;;;22.70;67.80;;;;;;5064396;28;20536;-68
2021/07/02 00:15:04;;;;;;;6.67;2.37;;;22.80;69.00;;;;;;5062155;28;20283;-68
2021/07/02 00:17:31;;;;;;;11.43;2.57;;;22.70;69.10;;;;;;5059592;28;20272;-68
2021/07/02 00:19:58;;;;;;;9.37;2.60;;;22.70;70.30;;;;;;5060339;28;20268;-68
2021/07/02 00:22:25;;;;;;;8.27;2.63;;;22.60;71.40;;;;;;5063628;28;20594;-68
2021/07/02 00:24:52;;;;;;;5.70;2.80;;;22.60;72.10;;;;;;5063411;28;20294;-68
2021/07/02 00:27:19;;;;;;;7.67;2.50;;;22.50;72.40;;;;;;5061596;28;20561;-68
2021/07/02 00:29:46;;;;;;;5.37;3.10;;;22.50;72.80;;;;;;5063651;28;20631;-68
2021/07/02 00:32:13;;;;;;;9.30;3.00;;;22.50;73.60;;;;;;5060493;28;20682;-68
2021/07/02 00:34:40;;;;;;;8.70;2.60;;;22.50;74.00;;;;;;5060508;28;20241;-68
2021/07/02 00:37:07;;;;;;;7.10;2.53;;;22.50;74.30;;;;;;5063691;28;20218;-68
2021/07/02 00:39:34;;;;;;;4.80;2.27;;;22.50;74.70;;;;;;5063063;28;20630;-68
2021/07/02 00:42:02;;;;;;;3.63;2.43;;;22.40;74.70;;;;;;5061461;28;20210;-68
2021/07/02 00:44:42;;;;;;;6.03;2.80;;;22.50;74.80;;;;;;5063794;28;20229;-68
2021/07/02 00:47:10;;;;;;;7.43;2.87;;;22.40;75.00;;;;;;5060414;28;20263;-68
2021/07/02 00:49:37;;;;;;;9.40;2.63;;;22.40;75.20;;;;;;5063092;28;20247;-68
2021/07/02 00:52:06;;;;;;;5.03;2.17;;;22.40;75.40;;;;;;5063349;28;20275;-68
2021/07/02 00:54:34;;;;;;;8.40;2.23;;;22.30;75.60;;;;;;5061311;28;20272;-68
2021/07/02 00:57:03;;;;;;;7.03;2.00;;;22.30;75.70;;;;;;5062926;28;20259;-68
2021/07/02 00:59:31;;;;;;;4.03;1.80;;;22.30;75.90;;;;;;5063895;28;20229;-68
2021/07/02 01:01:58;;;;;;;3.53;2.07;;;22.30;76.00;;;;;;5063956;28;20222;-68
2021/07/02 01:04:26;;;;;;;9.73;2.00;;;22.30;76.10;;;;;;5062593;28;20630;-68
2021/07/02 01:06:53;;;;;;;3.60;2.17;;;22.30;76.00;;;;;;5060934;28;20612;-68
2021/07/02 01:09:26;;;;;;;6.07;1.50;;;22.20;76.20;;;;;;5063196;28;20214;-68
2021/07/02 01:11:53;;;;;;;2.67;1.60;;;22.30;76.40;;;;;;5063524;28;20746;-68
2021/07/02 01:14:20;;;;;;;3.47;1.77;;;22.20;76.40;;;;;;5060665;28;20252;-68
2021/07/02 01:16:47;;;;;;;2.97;1.20;;;22.30;76.40;;;;;;5058619;28;20340;-68
2021/07/02 01:19:15;;;;;;;9.50;1.77;;;22.20;76.40;;;;;;5063333;28;20242;-68
2021/07/02 01:21:42;;;;;;;5.07;1.80;;;22.20;76.40;;;;;;5061076;28;20273;-68
2021/07/02 01:24:09;;;;;;;4.13;1.60;;;22.20;76.40;;;;;;5062309;28;20214;-68
2021/07/02 01:26:37;;;;;;;3.53;1.60;;;22.20;76.30;;;;;;5060944;28;20508;-68
2021/07/02 01:29:04;;;;;;;3.93;1.30;;;22.20;76.40;;;;;;5060880;28;20218;-68
2021/07/02 01:31:31;;;;;;;4.87;1.70;;;22.20;76.40;;;;;;5062526;28;20607;-68
2021/07/02 01:33:58;;;;;;;4.07;1.70;;;22.20;76.40;;;;;;5063522;28;20213;-68
2021/07/02 01:36:26;;;;;;;4.40;1.57;;;22.20;76.30;;;;;;5065326;28;20275;-68
2021/07/02 01:38:54;;;;;;;7.77;2.00;;;22.20;76.40;;;;;;5063120;28;20237;-68
2021/07/02 01:41:21;;;;;;;3.80;1.80;;;22.20;76.60;;;;;;5067099;28;20679;-68
2021/07/02 01:43:48;;;;;;;5.53;1.73;;;22.10;76.70;;;;;;5064504;28;20659;-68
2021/07/02 01:46:16;;;;;;;4.83;1.50;;;22.10;76.80;;;;;;5065315;28;20214;-68
2021/07/02 01:48:43;;;;;;;4.37;1.90;;;22.00;76.90;;;;;;5062905;28;20206;-68
2021/07/02 01:51:10;;;;;;;4.80;1.50;;;22.00;76.90;;;;;;5064505;28;20698;-69
2021/07/02 01:53:37;;;;;;;5.30;1.63;;;22.00;76.90;;;;;;5067312;28;20306;-69
2021/07/02 01:56:06;;;;;;;4.87;1.83;;;22.00;77.10;;;;;;5066990;28;20221;-69
2021/07/02 01:58:33;;;;;;;7.07;1.83;;;21.90;77.20;;;;;;5064485;28;20631;-69
2021/07/02 02:00:59;;;;;;;3.13;1.50;;;22.00;77.20;;;;;;5067977;28;20217;-68
2021/07/02 02:03:27;;;;;;;5.77;2.30;;;22.00;77.20;;;;;;5063847;28;20218;-68
2021/07/02 02:05:54;;;;;;;2.30;1.30;;;22.00;77.10;;;;;;5067603;28;20291;-68
2021/07/02 02:08:21;;;;;;;1.97;1.17;;;22.00;77.10;;;;;;5064986;28;20221;-68
2021/07/02 02:10:48;;;;;;;4.03;1.80;;;22.00;77.10;;;;;;5066536;28;20213;-68
2021/07/02 02:13:15;;;;;;;4.60;1.57;;;22.00;77.10;;;;;;5065919;28;20582;-68
2021/07/02 02:15:42;;;;;;;1.87;1.60;;;22.00;77.10;;;;;;5064042;28;20257;-68
2021/07/02 02:18:10;;;;;;;3.87;1.77;;;22.00;77.30;;;;;;5063420;28;20839;-68
2021/07/02 02:20:38;;;;;;;3.07;1.83;;;22.00;77.20;;;;;;5066272;28;20210;-68
2021/07/02 02:23:05;;;;;;;3.57;1.60;;;21.90;77.20;;;;;;5065257;28;20210;-68
2021/07/02 02:25:32;;;;;;;4.90;2.37;;;22.00;77.10;;;;;;5063515;28;20260;-68
2021/07/02 02:27:59;;;;;;;5.47;1.80;;;22.00;77.70;;;;;;5065746;28;20222;-68
2021/07/02 02:30:28;;;;;;;3.67;1.70;;;22.00;76.90;;;;;;5065206;28;20214;-68
2021/07/02 02:32:55;;;;;;;2.50;2.10;;;21.90;76.80;;;;;;5063239;28;20679;-68
2021/07/02 02:35:22;;;;;;;5.90;1.83;;;21.90;76.90;;;;;;5065529;28;20267;-68
2021/07/02 02:37:49;;;;;;;3.53;1.70;;;21.80;77.00;;;;;;5065239;28;20214;-68
2021/07/02 02:40:16;;;;;;;8.03;2.00;;;21.80;77.20;;;;;;5063290;28;20214;-68
2021/07/02 02:42:43;;;;;;;2.80;1.50;;;21.80;77.40;;;;;;5065203;28;20209;-68
2021/07/02 02:45:11;;;;;;;4.30;2.00;;;21.80;77.50;;;;;;5061989;28;20210;-68
2021/07/02 02:47:38;;;;;;;1.40;1.17;;;21.80;77.50;;;;;;5062490;28;20218;-68
2021/07/02 02:50:06;;;;;;;2.97;1.67;;;21.80;77.40;;;;;;5065235;28;20249;-68
2021/07/02 02:52:33;;;;;;;2.80;1.40;;;21.80;77.30;;;;;;5065100;28;20217;-68
2021/07/02 02:55:01;;;;;;;6.10;2.57;;;21.90;77.20;;;;;;5062910;28;20237;-68
2021/07/02 02:57:28;;;;;;;8.63;1.80;;;21.80;77.10;;;;;;5064901;28;20313;-68
2021/07/02 02:59:55;;;;;;;3.63;1.83;;;21.80;77.30;;;;;;5065667;28;20242;-68
2021/07/02 03:02:22;;;;;;;3.67;1.80;;;21.70;77.70;;;;;;5065538;28;20811;-68
2021/07/02 03:04:49;;;;;;;6.07;2.00;;;21.70;78.10;;;;;;5063730;28;20675;-68
2021/07/02 03:07:16;;;;;;;5.10;1.97;;;21.70;78.20;;;;;;5063737;28;20620;-69
2021/07/02 03:09:43;;;;;;;6.87;1.90;;;21.70;78.30;;;;;;5065445;28;20213;-68
2021/07/02 03:12:10;;;;;;;4.33;1.83;;;21.70;78.30;;;;;;5065782;28;20202;-68
2021/07/02 03:14:37;;;;;;;6.03;2.33;;;21.70;78.40;;;;;;5060479;28;20225;-68
2021/07/02 03:17:04;;;;;;;2.63;1.80;;;21.60;79.20;;;;;;5061218;28;20299;-68
2021/07/02 03:19:31;;;;;;;3.93;2.20;;;21.60;78.60;;;;;;5062768;28;20238;-68
2021/07/02 03:21:58;;;;;;;2.80;1.53;;;21.60;78.70;;;;;;5063793;28;21114;-68
2021/07/02 03:24:25;;;;;;;2.90;2.17;;;21.60;78.90;;;;;;5065203;28;20214;-68
2021/07/02 03:26:52;;;;;;;2.67;1.80;;;21.60;78.90;;;;;;5062720;28;20210;-68
2021/07/02 03:29:19;;;;;;;2.50;2.00;;;21.60;79.00;;;;;;5063428;28;20218;-68
2021/07/02 03:31:46;;;;;;;5.57;2.60;;;21.60;78.90;;;;;;5064474;28;20214;-68
2021/07/02 03:34:14;;;;;;;3.20;1.87;;;21.60;78.70;;;;;;5068181;28;20639;-68
2021/07/02 03:36:41;;;;;;;3.20;1.87;;;21.60;78.50;;;;;;5065059;28;20218;-68
2021/07/02 03:39:07;;;;;;;7.03;2.10;;;21.60;78.40;;;;;;5064792;28;20233;-68
2021/07/02 03:41:34;;;;;;;10.07;2.13;;;21.60;78.60;;;;;;5065923;28;20209;-68
2021/07/02 03:44:01;;;;;;;3.10;2.17;;;21.60;78.70;;;;;;5063563;28;20236;-68
2021/07/02 03:46:28;;;;;;;6.37;2.77;;;21.60;78.90;;;;;;5060980;28;20213;-68
2021/07/02 03:48:55;;;;;;;5.17;2.40;;;21.60;79.00;;;;;;5062067;28;20559;-68
2021/07/02 03:51:22;;;;;;;6.50;2.20;;;21.60;79.10;;;;;;5063577;28;20214;-68
2021/07/02 03:53:49;;;;;;;6.17;2.60;;;21.60;79.10;;;;;;5064657;28;20283;-68
2021/07/02 03:56:16;;;;;;;5.13;2.80;;;21.60;79.40;;;;;;5064385;28;20213;-68
2021/07/02 03:58:43;;;;;;;6.73;2.87;;;21.60;79.50;;;;;;5062810;28;20237;-68
2021/07/02 04:01:10;;;;;;;5.47;2.70;;;21.60;79.70;;;;;;5062544;28;20217;-68
2021/07/02 04:03:37;;;;;;;6.20;2.57;;;21.60;79.60;;;;;;5060721;28;20645;-68
2021/07/02 04:06:04;;;;;;;4.37;2.60;;;21.60;79.60;;;;;;5064399;28;20217;-68
2021/07/02 04:08:31;;;;;;;5.40;2.47;;;21.60;79.50;;;;;;5064464;28;20638;-68
2021/07/02 04:10:59;;;;;;;3.93;2.50;;;21.60;79.50;;;;;;5060493;28;20670;-68
2021/07/02 04:13:25;;;;;;;4.37;2.80;;;21.60;79.70;;;;;;5064416;28;20210;-68
2021/07/02 04:15:53;;;;;;;9.00;2.90;;;21.70;79.70;;;;;;5063157;28;20241;-69
2021/07/02 04:18:21;;;;;;;2.87;2.40;;;21.70;79.50;;;;;;5064403;28;20210;-68
2021/07/02 04:20:48;;;;;;;7.47;2.73;;;21.70;79.60;;;;;;5060412;28;20227;-68
2021/07/02 04:23:15;;;;;;;7.23;2.50;;;21.80;79.50;;;;;;5063887;28;20640;-68
2021/07/02 04:25:42;;;;;;;4.43;2.60;;;21.90;79.50;;;;;;5061828;28;20210;-68
2021/07/02 04:28:09;;;;;;;6.83;3.00;;;21.90;79.40;;;;;;5063068;28;20221;-68
2021/07/02 04:30:37;;;;;;;5.63;2.53;;;21.90;79.40;;;;;;5064000;28;20637;-68
2021/07/02 04:33:04;;;;;;;4.70;2.07;;;21.80;79.50;;;;;;5059730;28;20279;-68
2021/07/02 04:35:31;;;;;;;3.83;2.10;;;21.90;79.70;;;;;;5063004;28;20213;-68
2021/07/02 04:37:58;;;;;;;5.00;3.07;;;21.90;79.70;;;;;;5064119;28;20275;-68
2021/07/02 04:40:25;;;;;;;6.07;2.40;;;22.00;79.60;;;;;;5061122;28;20761;-68
2021/07/02 04:42:52;;;;;;;10.43;3.23;;;22.10;79.70;;;;;;5062932;28;20598;-68
2021/07/02 04:45:20;;;;;;;4.73;2.43;;;22.30;79.70;;;;;;5060605;28;20583;-68
2021/07/02 04:47:47;;;;;;;6.20;2.87;;;22.40;79.40;;;;;;5061475;28;20272;-68
2021/07/02 04:50:13;;;;;;;5.00;2.67;;;22.50;79.20;;;;;;5062965;28;20654;-68
2021/07/02 04:52:40;;;;;;;2.67;2.20;;;22.60;78.90;;;;;;5063729;28;20225;-68
2021/07/02 04:55:08;;;;;;;7.57;3.27;;;22.70;78.80;;;;;;5061108;28;20248;-68
2021/07/02 04:57:35;;;;;;;5.77;3.07;;;22.80;78.90;;;;;;5059716;28;20605;-68
2021/07/02 05:00:05;;;;;;;8.00;2.87;;;22.80;78.90;;;;;;5063676;28;20270;-68
2021/07/02 05:02:32;;;;;;;8.17;3.60;;;23.00;78.70;;;;;;5060196;28;20537;-68
2021/07/02 05:04:59;;;;;;;6.93;2.73;;;23.10;78.30;;;;;;5062675;28;20207;-68
2021/07/02 05:07:26;;;;;;;8.47;3.20;;;23.20;78.00;;;;;;5061053;28;20634;-68
2021/07/02 05:09:53;;;;;;;4.97;3.03;;;23.30;78.00;;;;;;5061887;28;20218;-69
2021/07/02 05:12:20;;;;;;;5.67;3.03;;;23.30;77.80;;;;;;5068334;28;20697;-68
2021/07/02 05:14:48;;;;;;;7.23;3.00;;;23.40;77.60;;;;;;5065078;28;20288;-68
2021/07/02 05:17:15;;;;;;;6.27;2.87;;;23.40;77.40;;;;;;5064950;28;20245;-68
2021/07/02 05:19:42;;;;;;;5.67;3.30;;;23.50;76.70;;;;;;5066155;28;20233;-68
2021/07/02 05:22:14;;;;;;;8.00;3.30;;;23.60;76.00;;;;;;5067500;28;20607;-68
2021/07/02 05:24:41;;;;;;;7.47;3.17;;;23.70;75.50;;;;;;5066073;28;20284;-68
2021/07/02 05:27:08;;;;;;;6.13;3.53;;;23.60;75.10;;;;;;5068303;28;20214;-68
2021/07/02 05:29:36;;;;;;;4.50;3.30;;;23.60;75.00;;;;;;5064442;28;20224;-68
2021/07/02 05:32:03;;;;;;;4.90;3.33;;;23.60;75.20;;;;;;5066671;28;20300;-68
2021/07/02 05:34:31;;;;;;;8.83;3.70;;;23.70;74.70;;;;;;5063662;28;20564;-68
2021/07/02 05:36:58;;;;;;;4.60;3.27;;;23.70;74.50;;;;;;5068090;28;20214;-68
2021/07/02 05:39:26;;;;;;;5.93;3.80;;;23.70;75.40;;;;;;5065891;28;20267;-68
2021/07/02 05:41:53;;;;;;;5.07;2.83;;;23.80;74.10;;;;;;5066664;28;20214;-68
2021/07/02 05:44:20;;;;;;;6.20;3.07;;;23.80;74.00;;;;;;5063887;28;20265;-68
2021/07/02 05:46:47;;;;;;;5.87;2.90;;;23.80;73.80;;;;;;5066344;28;20214;-68
2021/07/02 05:49:15;;;;;;;4.90;3.10;;;23.90;73.50;;;;;;5068079;28;20221;-68
2021/07/02 05:51:42;;;;;;;5.20;3.00;;;23.90;73.00;;;;;;5064289;28;20222;-68
2021/07/02 05:54:10;;;;;;;3.73;3.10;;;24.00;72.80;;;;;;5067882;28;20211;-68
2021/07/02 05:56:36;;;;;;;3.87;2.70;;;24.00;72.70;;;;;;5064096;28;20630;-69
2021/07/02 05:59:04;;;;;;;3.63;2.80;;;24.00;72.40;;;;;;5066754;28;20221;-68
2021/07/02 06:01:31;;;;;;;2.40;2.20;;;24.00;72.40;;;;;;5064838;28;20632;-68
2021/07/02 06:03:58;;;;;;;3.50;3.17;;;24.00;72.30;;;;;;5064161;28;20248;-68
2021/07/02 06:06:25;;;;;;;6.30;2.40;;;24.10;72.70;;;;;;5066663;28;20205;-68
2021/07/02 06:08:53;;;;;;;5.80;2.90;;;24.30;72.40;;;;;;5064708;28;20565;-68
2021/07/02 06:11:20;;;;;;;2.53;2.30;;;24.30;71.70;;;;;;5064205;28;20206;-68
2021/07/02 06:13:48;;;;;;;5.57;2.40;;;24.30;71.00;;;;;;5067514;28;20206;-68
2021/07/02 06:16:15;;;;;;;3.43;2.30;;;24.30;71.50;;;;;;5065079;28;20291;-68
2021/07/02 06:18:42;;;;;;;3.43;2.10;;;24.30;71.70;;;;;;5066010;28;20217;-68
2021/07/02 06:21:09;;;;;;;2.93;1.63;;;24.30;71.90;;;;;;5063472;28;20280;-68
2021/07/02 06:23:37;;;;;;;4.03;1.97;;;24.50;71.00;;;;;;5065070;28;20620;-68
2021/07/02 06:26:06;;;;;;;3.53;1.93;;;24.60;70.80;;;;;;5066414;28;20205;-68
2021/07/02 06:28:33;;;;;;;3.57;1.80;;;24.80;71.30;;;;;;5059954;28;20275;-68
2021/07/02 06:31:01;;;;;;;4.73;1.63;;;24.90;70.20;;;;;;5064555;28;20213;-68
2021/07/02 06:33:28;;;;;;;6.17;2.13;;;25.00;69.90;;;;;;5064813;28;20312;-68
2021/07/02 06:35:55;;;;;;;2.40;1.60;;;25.10;69.60;;;;;;5063832;28;20279;-69
2021/07/02 06:38:22;;;;;;;3.33;1.67;;;25.20;69.30;;;;;;5064687;28;20596;-69
2021/07/02 06:40:49;;;;;;;3.90;1.80;;;25.30;69.30;;;;;;5061760;28;20280;-69
2021/07/02 06:43:16;;;;;;;3.67;1.57;;;25.60;69.20;;;;;;5062053;28;20785;-69
2021/07/02 06:45:43;;;;;;;2.63;1.60;;;26.10;68.50;;;;;;5064573;28;20514;-69
2021/07/02 06:48:10;;;;;;;5.70;1.93;;;26.70;67.00;;;;;;5062271;28;20217;-69
2021/07/02 06:50:42;;;;;;;3.60;1.97;;;27.00;65.80;;;;;;5063074;28;20214;-69
2021/07/02 06:53:10;;;;;;;6.43;1.90;;;27.10;65.70;;;;;;5063498;28;20218;-69
2021/07/02 06:55:37;;;;;;;5.80;1.30;;;27.30;64.80;;;;;;5065877;28;20229;-68
2021/07/02 06:58:04;;;;;;;7.50;1.63;;;27.50;64.00;;;;;;5061902;28;20267;-68
2021/07/02 07:00:31;;;;;;;8.43;1.90;;;27.70;63.70;;;;;;5063311;28;20230;-68
2021/07/02 07:02:58;;;;;;;5.53;1.70;;;28.10;63.00;;;;;;5065523;28;20748;-68
2021/07/02 07:05:25;;;;;;;3.30;1.40;;;28.40;61.90;;;;;;5063457;28;20296;-68
2021/07/02 07:07:53;;;;;;;3.50;2.07;;;28.70;60.90;;;;;;5063436;28;20272;-69
2021/07/02 07:10:20;;;;;;;5.73;1.70;;;28.90;59.60;;;;;;5065386;28;20217;-69
2021/07/02 07:12:47;;;;;;;5.00;1.60;;;29.00;59.00;;;;;;5065376;28;20220;-69
2021/07/02 07:15:15;;;;;;;4.80;1.60;;;29.10;58.60;;;;;;5064667;28;20225;-69
2021/07/02 07:17:42;;;;;;;4.23;1.40;;;29.10;58.40;;;;;;5061877;28;20298;-68
2021/07/02 07:20:10;;;;;;;7.20;1.37;;;29.30;58.10;;;;;;5063533;28;20294;-69
2021/07/02 07:22:37;;;;;;;6.67;1.90;;;29.50;57.20;;;;;;5062863;28;20271;-69
2021/07/02 07:25:05;;;;;;;4.13;1.60;;;29.70;57.30;;;;;;5065272;28;20245;-69
2021/07/02 07:27:33;;;;;;;6.87;2.07;;;30.00;56.20;;;;;;5061503;28;20243;-70
2021/07/02 07:30:00;;;;;;;4.63;1.57;;;30.20;55.50;;;;;;5064987;28;20613;-69
2021/07/02 07:32:27;;;;;;;3.93;1.53;;;30.40;55.30;;;;;;5061484;28;20229;-69
2021/07/02 07:34:58;;;;;;;8.67;2.03;;;30.50;55.10;;;;;;5062655;28;20757;-68
2021/07/02 07:37:27;;;;;;;3.17;1.40;;;30.60;54.70;;;;;;5064725;28;20224;-69
2021/07/02 07:39:54;;;;;;;4.63;1.47;;;30.80;54.00;;;;;;5062779;28;20249;-69
2021/07/02 07:42:21;;;;;;;2.87;1.50;;;31.00;53.50;;;;;;5063107;28;20218;-69
2021/07/02 07:44:48;;;;;;;5.60;1.43;;;31.10;52.80;;;;;;5067210;28;20225;-69
2021/07/02 07:47:15;;;;;;;7.77;1.70;;;31.20;53.00;;;;;;5062128;28;20280;-68
2021/07/02 07:49:44;;;;;;;3.63;1.27;;;31.20;52.00;;;;;;5062860;28;20237;-68
2021/07/02 07:52:18;;;;;;;4.00;1.50;;;31.20;52.30;;;;;;5065292;28;20214;-68
2021/07/02 07:54:45;;;;;;;10.23;1.50;;;31.30;52.50;;;;;;5063094;28;20309;-69
2021/07/02 07:57:12;;;;;;;6.17;1.90;;;31.40;52.70;;;;;;5060914;28;20224;-68
2021/07/02 07:59:39;;;;;;;2.27;1.30;;;31.60;52.30;;;;;;5062322;28;20252;-68
2021/07/02 08:02:07;;;;;;;4.23;1.50;;;31.80;51.00;;;;;;5062785;28;20227;-68
2021/07/02 08:04:34;;;;;;;2.83;1.50;;;31.90;50.00;;;;;;5064567;28;20212;-69
2021/07/02 08:07:02;;;;;;;2.63;1.30;;;32.00;50.10;;;;;;5062254;28;20216;-68
2021/07/02 08:09:32;;;;;;;3.03;1.40;;;32.20;50.30;;;;;;5062077;28;20210;-68
2021/07/02 08:11:59;;;;;;;2.83;1.60;;;32.30;49.80;;;;;;5065149;28;20210;-68
2021/07/02 08:14:26;;;;;;;5.00;1.30;;;32.50;49.70;;;;;;5063643;28;20570;-67
2021/07/02 08:16:53;;;;;;;3.63;1.50;;;32.60;48.90;;;;;;5060509;28;20238;-68
2021/07/02 08:19:20;;;;;;;3.93;1.70;;;32.70;48.70;;;;;;5064377;28;20270;-68
2021/07/02 08:21:47;;;;;;;3.33;1.40;;;32.70;48.20;;;;;;5062331;28;20746;-67
2021/07/02 08:24:14;;;;;;;7.00;1.60;;;32.80;48.40;;;;;;5062013;28;20215;-69
2021/07/02 08:26:42;;;;;;;4.27;1.70;;;32.80;48.10;;;;;;5067571;28;20220;-69
2021/07/02 08:29:28;;;;;;;3.07;1.30;;;32.90;48.30;;;;;;5062456;28;20206;-68
2021/07/02 08:31:56;;;;;;;3.53;1.50;;;32.90;46.90;;;;;;5062606;28;20249;-69
2021/07/02 08:34:24;;;;;;;4.10;1.60;;;32.80;47.40;;;;;;5061715;28;20241;-68
2021/07/02 08:36:51;;;;;;;4.57;1.50;;;32.70;47.30;;;;;;5064164;28;20266;-68
2021/07/02 08:39:18;;;;;;;7.93;2.00;;;32.40;47.30;;;;;;5062875;28;20210;-69
2021/07/02 08:41:45;;;;;;;3.57;1.30;;;31.90;48.80;;;;;;5064917;28;20619;-69
2021/07/02 08:44:12;;;;;;;6.97;1.60;;;31.70;49.30;;;;;;5062712;28;20218;-69
2021/07/02 08:46:42;;;;;;;9.70;2.00;;;31.80;48.60;;;;;;5064276;28;20272;-68
2021/07/02 08:49:30;;;;;;;7.90;1.40;;;31.80;48.40;;;;;;5066518;28;20206;-68
2021/07/02 08:51:58;;;;;;;5.70;2.03;;;31.80;48.50;;;;;;5065273;28;20222;-68
2021/07/02 08:54:25;;;;;;;3.80;1.63;;;32.00;48.60;;;;;;5067462;28;20635;-68
2021/07/02 08:56:58;;;;;;;5.27;1.90;;;32.20;48.60;;;;;;5064202;28;20211;-68
2021/07/02 08:59:28;;;;;;;3.70;1.50;;;32.60;48.60;;;;;;5065617;28;20210;-68
2021/07/02 09:01:56;;;;;;;4.33;1.57;;;33.00;48.00;;;;;;5066089;28;20238;-68
2021/07/02 09:04:29;;;;;;;3.27;1.40;;;33.30;47.40;;;;;;5067889;28;20224;-68
2021/07/02 09:07:13;;;;;;;4.40;1.50;;;33.50;46.60;;;;;;5066822;28;20248;-68
2021/07/02 09:09:44;;;;;;;4.73;1.23;;;33.70;46.40;;;;;;5066283;28;20217;-69
2021/07/02 09:12:18;;;;;;;4.67;1.50;;;34.00;46.10;;;;;;5067942;28;20225;-68
2021/07/02 09:15:04;;;;;;;4.70;1.30;;;34.00;44.60;;;;;;5066362;28;20206;-68
2021/07/02 09:17:34;;;;;;;2.30;1.33;;;34.10;45.30;;;;;;5043780;28;20214;-68
2021/07/02 09:20:11;;;;;;;3.93;1.50;;;34.20;45.40;;;;;;5047465;28;20238;-68
2021/07/02 09:22:47;;;;;;;3.13;1.50;;;34.40;44.80;;;;;;5046982;28;20233;-68
2021/07/02 09:25:21;;;;;;;3.00;1.37;;;34.40;44.00;;;;;;5044549;28;20211;-68
2021/07/02 09:27:50;;;;;;;1.83;1.30;;;33.90;44.30;;;;;;5042335;28;20214;-69
2021/07/02 09:30:20;;;;;;;2.97;1.50;;;33.80;44.60;;;;;;5046608;28;20559;-68
2021/07/02 09:33:01;;;;;;;4.83;1.43;;;33.90;44.20;;;;;;5047434;28;20210;-69
2021/07/02 09:35:45;;;;;;;2.10;1.20;;;33.90;43.60;;;;;;5046356;28;20276;-69
2021/07/02 09:38:15;;;;;;;88.47;7.20;;;33.90;44.20;;;;;;5046699;28;20211;-69
2021/07/02 09:40:42;;;;;;;3.53;1.90;;;34.00;44.20;;;;;;5044597;28;20253;-68
2021/07/02 09:43:09;;;;;;;2.80;1.17;;;34.30;43.40;;;;;;5046642;28;20237;-68
2021/07/02 09:45:52;;;;;;;3.30;1.70;;;34.40;42.60;;;;;;5045148;28;20221;-68
2021/07/02 09:48:27;;;;;;;2.23;1.30;;;34.30;41.30;;;;;;5045709;28;20215;-68
2021/07/02 09:50:56;;;;;;;4.50;1.50;;;34.10;41.40;;;;;;5044271;28;20545;-68
2021/07/02 09:53:25;;;;;;;4.83;1.43;;;34.00;42.20;;;;;;5045689;28;20225;-68
2021/07/02 09:55:54;;;;;;;6.47;1.50;;;34.00;42.00;;;;;;5046192;28;20222;-69
2021/07/02 09:58:29;;;;;;;4.93;1.60;;;34.00;42.60;;;;;;5043132;28;20315;-69
2021/07/02 10:00:59;;;;;;;4.70;1.53;;;34.20;42.00;;;;;;5042235;28;20600;-69
2021/07/02 10:03:29;;;;;;;7.00;1.20;;;34.40;42.10;;;;;;5045892;28;20699;-69
2021/07/02 10:05:58;;;;;;;3.07;1.30;;;34.50;41.30;;;;;;5046898;28;20229;-69
2021/07/02 10:08:33;;;;;;;2.37;1.27;;;34.60;42.30;;;;;;5043071;28;20205;-69
2021/07/02 10:11:03;;;;;;;5.13;1.80;;;34.90;42.00;;;;;;5046306;28;20614;-69
2021/07/02 10:13:36;;;;;;;7.40;1.67;;;35.20;42.40;;;;;;5046571;28;20214;-69
2021/07/02 10:16:06;;;;;;;4.30;1.40;;;35.50;41.00;;;;;;5053969;28;20254;-69
2021/07/02 10:18:51;;;;;;;4.83;1.20;;;35.70;40.00;;;;;;5064199;28;20276;-69
2021/07/02 10:21:22;;;;;;;5.00;1.80;;;35.80;39.60;;;;;;5064016;28;20292;-69
2021/07/02 10:23:52;;;;;;;4.73;1.60;;;36.00;39.80;;;;;;5064489;28;20219;-69
2021/07/02 10:26:20;;;;;;;11.47;1.70;;;36.20;39.60;;;;;;5066411;28;20212;-69
2021/07/02 10:28:47;;;;;;;5.37;1.33;;;36.30;39.40;;;;;;5062279;28;20621;-68
2021/07/02 10:31:17;;;;;;;5.33;1.77;;;36.30;38.30;;;;;;5066117;28;20213;-68
2021/07/02 10:33:47;;;;;;;4.70;1.50;;;36.30;38.60;;;;;;5063754;28;20229;-68
2021/07/02 10:36:16;;;;;;;2.23;1.30;;;36.30;38.80;;;;;;5064157;28;20226;-68
2021/07/02 10:38:49;;;;;;;2.10;1.20;;;36.30;38.70;;;;;;5065915;28;20217;-68
2021/07/02 10:41:17;;;;;;;2.73;1.60;;;36.40;38.40;;;;;;5064623;28;20238;-68
2021/07/02 10:44:10;;;;;;;3.03;1.60;;;36.40;37.50;;;;;;5065677;28;20206;-68
2021/07/02 10:46:46;;;;;;;4.20;1.40;;;36.10;37.40;;;;;;5061836;28;20221;-68
2021/07/02 10:49:15;;;;;;;5.57;1.77;;;35.90;38.90;;;;;;5062258;28;20230;-68
2021/07/02 10:51:52;;;;;;;2.30;1.30;;;35.90;38.90;;;;;;5063050;28;20276;-69
2021/07/02 10:54:20;;;;;;;3.20;1.40;;;36.10;38.50;;;;;;5063029;28;20214;-69
2021/07/02 10:56:56;;;;;;;2.80;1.40;;;36.20;38.50;;;;;;5064005;28;20226;-69
2021/07/02 10:59:38;;;;;;;2.03;1.23;;;36.20;37.60;;;;;;5065771;28;20250;-69
2021/07/02 11:02:06;;;;;;;2.60;1.30;;;36.00;37.50;;;;;;5065599;28;20620;-69
2021/07/02 11:04:33;;;;;;;6.50;1.57;;;35.50;38.00;;;;;;5063055;28;20671;-68
2021/07/02 11:07:01;;;;;;;8.23;1.57;;;35.20;38.50;;;;;;5063503;28;20214;-69
2021/07/02 11:09:56;;;;;;;4.13;1.60;;;35.00;38.50;;;;;;5064963;28;20217;-69
2021/07/02 11:12:23;;;;;;;4.10;1.30;;;35.00;38.30;;;;;;5065275;28;20205;-68
2021/07/02 11:15:13;;;;;;;2.67;1.27;;;34.90;38.50;;;;;;5064191;28;20558;-68
2021/07/02 11:17:44;;;;;;;2.63;1.13;;;34.90;38.50;;;;;;5056332;28;20214;-69
2021/07/02 11:20:18;;;;;;;5.90;1.90;;;35.00;39.60;;;;;;5062608;28;20237;-69
2021/07/02 11:22:48;;;;;;;7.30;1.97;;;35.20;39.70;;;;;;5062076;28;20664;-69
2021/07/02 11:25:41;;;;;;;2.60;1.43;;;35.40;39.20;;;;;;5062933;28;20221;-69
2021/07/02 11:28:10;;;;;;;4.20;1.60;;;35.60;38.80;;;;;;5061963;28;20222;-69
2021/07/02 11:30:42;;;;;;;5.33;1.67;;;35.80;38.90;;;;;;5062083;28;20221;-69
2021/07/02 11:33:09;;;;;;;2.33;1.30;;;35.90;38.60;;;;;;5064236;28;20701;-69
2021/07/02 11:36:05;;;;;;;4.23;1.90;;;36.00;38.70;;;;;;5061118;28;20577;-69
2021/07/02 11:38:42;;;;;;;2.77;1.40;;;36.20;38.70;;;;;;5064636;28;20210;-69
2021/07/02 11:41:22;;;;;;;4.17;1.50;;;36.40;38.80;;;;;;5062279;28;20667;-69
2021/07/02 11:43:50;;;;;;;3.87;1.37;;;36.50;38.20;;;;;;5068225;28;20210;-69
2021/07/02 11:46:18;;;;;;;3.13;1.30;;;36.50;37.90;;;;;;5069238;28;20206;-69
2021/07/02 11:48:51;;;;;;;6.47;1.57;;;36.40;38.00;;;;;;5062732;28;20210;-69
2021/07/02 11:51:25;;;;;;;7.10;1.40;;;36.20;38.40;;;;;;5064797;28;20218;-69
2021/07/02 11:54:00;;;;;;;4.47;1.40;;;36.00;37.60;;;;;;5068241;28;20248;-69
2021/07/02 11:56:36;;;;;;;3.97;1.40;;;35.90;38.10;;;;;;5060848;28;20213;-69
2021/07/02 11:59:06;;;;;;;4.33;1.77;;;35.90;38.30;;;;;;5065104;28;20211;-69
2021/07/02 12:01:40;;;;;;;4.30;1.30;;;35.90;37.90;;;;;;5060962;28;20299;-69
2021/07/02 12:04:35;;;;;;;3.10;1.43;;;35.80;37.50;;;;;;5065597;28;20220;-69
2021/07/02 12:07:08;;;;;;;6.07;1.77;;;35.60;37.20;;;;;;5061226;28;20263;-69
2021/07/02 12:09:44;;;;;;;7.63;1.80;;;35.50;38.00;;;;;;5063446;28;20224;-69
2021/07/02 12:12:21;;;;;;;3.63;1.53;;;35.50;38.10;;;;;;5065161;28;20631;-69
2021/07/02 12:14:48;;;;;;;4.13;1.33;;;35.50;38.10;;;;;;5065190;28;20224;-69
2021/07/02 12:17:18;;;;;;;2.03;1.30;;;35.60;37.50;;;;;;5064182;28;20620;-69
2021/07/02 12:19:45;;;;;;;3.70;1.23;;;35.40;38.00;;;;;;5063335;28;20236;-69
2021/07/02 12:22:14;;;;;;;3.33;1.47;;;35.30;37.90;;;;;;5060148;28;20295;-69
2021/07/02 12:24:46;;;;;;;3.93;1.43;;;35.30;38.60;;;;;;5061826;28;20221;-68
2021/07/02 12:27:14;;;;;;;7.10;1.87;;;35.40;38.80;;;;;;5060437;28;20205;-69
2021/07/02 12:29:43;;;;;;;2.83;1.47;;;35.50;38.40;;;;;;5061800;28;20225;-68
2021/07/02 12:32:13;;;;;;;3.50;1.30;;;35.70;38.20;;;;;;5060493;28;20628;-69
2021/07/02 12:34:45;;;;;;;2.47;1.40;;;35.80;37.20;;;;;;5063688;28;20209;-68
2021/07/02 12:37:15;;;;;;;2.87;1.53;;;35.80;36.50;;;;;;5055467;28;20640;-68
2021/07/02 12:39:46;;;;;;;4.80;1.50;;;35.50;37.00;;;;;;5063401;28;20224;-68
2021/07/02 12:42:14;;;;;;;2.63;1.57;;;35.40;37.20;;;;;;5062390;28;20233;-68
2021/07/02 12:44:52;;;;;;;5.70;1.77;;;35.30;37.30;;;;;;5059763;28;20205;-69
2021/07/02 12:47:20;;;;;;;7.30;1.47;;;35.20;37.10;;;;;;5062577;28;20522;-68
2021/07/02 12:49:49;;;;;;;4.23;1.67;;;35.20;37.90;;;;;;5060590;28;20308;-68
2021/07/02 12:54:58;;;;;;;2.47;1.27;;;35.40;37.70;;;;;;5061212;28;20218;-69
2021/07/02 12:57:29;;;;;;;2.53;1.17;;;35.50;37.30;;;;;;5062555;28;20214;-68